sensor_id;sensor_type;location;lat;lon;timestamp;pressure;altitude;pressure_sealevel;temperature;humidity
60337;BME280;46978;50.288;28.624;2023-04-01T00:00:03;97658.80;;;3.66;100.00
60337;BME280;46978;50.288;28.624;2023-04-01T00:01:05;97657.06;;;3.66;100.00
60337;BME280;46978;50.288;28.624;2023-04-01T00:02:07;97653.66;;;3.66;100.00
60337;BME280;46978;50.288;28.624;2023-04-01T00:03:09;97646.81;;;3.66;100.00
60337;BME280;46978;50.288;28.624;2023-04-01T00:04:11;97647.67;;;3.65;100.00
60337;BME280;46978;50.288;28.624;2023-04-01T00:05:13;97651.94;;;3.66;100.00
60337;BME280;46978;50.288;28.624;2023-04-01T00:06:16;97649.38;;;3.66;100.00
60337;BME280;46978;50.288;28.624;2023-04-01T00:07:18;97645.10;;;3.65;100.00
60337;BME280;46978;50.288;28.624;2023-04-01T00:08:20;97639.17;;;3.63;100.00
60337;BME280;46978;50.288;28.624;2023-04-01T00:09:22;97649.40;;;3.65;100.00
60337;BME280;46978;50.288;28.624;2023-04-01T00:10:24;97639.14;;;3.65;100.00
60337;BME280;46978;50.288;28.624;2023-04-01T00:11:25;97650.27;;;3.64;100.00
60337;BME280;46978;50.288;28.624;2023-04-01T00:12:27;97640.92;;;3.61;100.00
60337;BME280;46978;50.288;28.624;2023-04-01T00:13:29;97647.72;;;3.62;100.00
60337;BME280;46978;50.288;28.624;2023-04-01T00:14:30;97640.08;;;3.59;100.00
60337;BME280;46978;50.288;28.624;2023-04-01T00:15:33;97642.62;;;3.61;100.00
60337;BME280;46978;50.288;28.624;2023-04-01T00:16:36;97644.35;;;3.60;100.00
60337;BME280;46978;50.288;28.624;2023-04-01T00:17:39;97636.69;;;3.58;100.00
60337;BME280;46978;50.288;28.624;2023-04-01T00:18:40;97638.44;;;3.56;100.00
60337;BME280;46978;50.288;28.624;2023-04-01T00:19:42;97632.47;;;3.54;100.00
60337;BME280;46978;50.288;28.624;2023-04-01T00:20:47;97639.33;;;3.54;100.00
60337;BME280;46978;50.288;28.624;2023-04-01T00:21:49;97638.52;;;3.52;100.00
60337;BME280;46978;50.288;28.624;2023-04-01T00:22:51;97637.66;;;3.51;100.00
60337;BME280;46978;50.288;28.624;2023-04-01T00:23:53;97635.09;;;3.51;100.00
60337;BME280;46978;50.288;28.624;2023-04-01T00:24:56;97633.42;;;3.50;100.00
60337;BME280;46978;50.288;28.624;2023-04-01T00:26:02;97641.12;;;3.50;100.00
60337;BME280;46978;50.288;28.624;2023-04-01T00:27:04;97638.55;;;3.50;100.00
60337;BME280;46978;50.288;28.624;2023-04-01T00:28:06;97633.45;;;3.49;100.00
60337;BME280;46978;50.288;28.624;2023-04-01T00:29:08;97638.58;;;3.49;100.00
60337;BME280;46978;50.288;28.624;2023-04-01T00:30:11;97625.78;;;3.47;100.00
60337;BME280;46978;50.288;28.624;2023-04-01T00:31:13;97630.94;;;3.46;100.00
60337;BME280;46978;50.288;28.624;2023-04-01T00:32:15;97635.17;;;3.47;100.00
60337;BME280;46978;50.288;28.624;2023-04-01T00:33:17;97635.17;;;3.47;100.00
60337;BME280;46978;50.288;28.624;2023-04-01T00:34:23;97633.50;;;3.46;100.00
60337;BME280;46978;50.288;28.624;2023-04-01T00:35:25;97630.97;;;3.44;100.00
60337;BME280;46978;50.288;28.624;2023-04-01T00:36:27;97632.66;;;3.44;100.00
60337;BME280;46978;50.288;28.624;2023-04-01T00:37:28;97627.56;;;3.42;100.00
60337;BME280;46978;50.288;28.624;2023-04-01T00:38:30;97629.27;;;3.43;100.00
60337;BME280;46978;50.288;28.624;2023-04-01T00:39:33;97631.83;;;3.43;100.00
60337;BME280;46978;50.288;28.624;2023-04-01T00:40:38;97631.02;;;3.41;100.00
60337;BME280;46978;50.288;28.624;2023-04-01T00:41:40;97631.02;;;3.41;100.00
60337;BME280;46978;50.288;28.624;2023-04-01T00:42:41;97629.27;;;3.43;100.00
60337;BME280;46978;50.288;28.624;2023-04-01T00:43:45;97627.53;;;3.44;100.00
60337;BME280;46978;50.288;28.624;2023-04-01T00:44:52;97626.67;;;3.45;100.00
60337;BME280;46978;50.288;28.624;2023-04-01T00:45:54;97628.38;;;3.46;100.00
60337;BME280;46978;50.288;28.624;2023-04-01T00:46:56;97630.05;;;3.47;100.00
60337;BME280;46978;50.288;28.624;2023-04-01T00:48:01;97627.48;;;3.47;100.00
60337;BME280;46978;50.288;28.624;2023-04-01T00:49:03;97630.86;;;3.50;100.00
60337;BME280;46978;50.288;28.624;2023-04-01T00:50:05;97633.37;;;3.53;100.00
60337;BME280;46978;50.288;28.624;2023-04-01T00:51:11;97630.77;;;3.55;100.00
60337;BME280;46978;50.288;28.624;2023-04-01T00:52:23;97627.29;;;3.57;100.00
60337;BME280;46978;50.288;28.624;2023-04-01T00:53:30;97624.70;;;3.59;100.00
60337;BME280;46978;50.288;28.624;2023-04-01T00:54:35;97623.78;;;3.63;100.00
60337;BME280;46978;50.288;28.624;2023-04-01T00:55:43;97623.81;;;3.62;100.00
60337;BME280;46978;50.288;28.624;2023-04-01T00:56:53;97622.10;;;3.61;100.00
60337;BME280;46978;50.288;28.624;2023-04-01T00:57:56;97623.84;;;3.60;100.00
60337;BME280;46978;50.288;28.624;2023-04-01T00:59:09;97623.03;;;3.58;100.00
60337;BME280;46978;50.288;28.624;2023-04-01T01:00:12;97622.16;;;3.57;100.00
60337;BME280;46978;50.288;28.624;2023-04-01T01:01:16;97629.02;;;3.57;100.00
60337;BME280;46978;50.288;28.624;2023-04-01T01:02:18;97629.91;;;3.54;100.00
60337;BME280;46978;50.288;28.624;2023-04-01T01:03:20;97634.20;;;3.54;100.00
60337;BME280;46978;50.288;28.624;2023-04-01T01:04:29;97625.70;;;3.52;100.00
60337;BME280;46978;50.288;28.624;2023-04-01T01:10:59;97623.22;;;3.47;100.00
60337;BME280;46978;50.288;28.624;2023-04-01T01:13:38;97626.67;;;3.45;100.00
60337;BME280;46978;50.288;28.624;2023-04-01T01:16:15;97629.29;;;3.41;100.00
60337;BME280;46978;50.288;28.624;2023-04-01T01:17:50;97630.15;;;3.40;100.00
60337;BME280;46978;50.288;28.624;2023-04-01T01:19:11;97625.92;;;3.39;100.00
60337;BME280;46978;50.288;28.624;2023-04-01T01:20:14;97629.37;;;3.37;100.00
60337;BME280;46978;50.288;28.624;2023-04-01T01:22:30;97626.00;;;3.35;100.00
60337;BME280;46978;50.288;28.624;2023-04-01T01:27:09;97627.80;;;3.28;100.00
60337;BME280;46978;50.288;28.624;2023-04-01T01:30:58;97621.03;;;3.26;100.00
60337;BME280;46978;50.288;28.624;2023-04-01T01:33:25;97621.08;;;3.22;100.00
60337;BME280;46978;50.288;28.624;2023-04-01T01:34:51;97629.63;;;3.21;100.00
60337;BME280;46978;50.288;28.624;2023-04-01T01:35:52;97626.25;;;3.19;100.00
60337;BME280;46978;50.288;28.624;2023-04-01T01:36:57;97624.55;;;3.18;100.00
60337;BME280;46978;50.288;28.624;2023-04-01T01:38:02;97626.28;;;3.18;100.00
60337;BME280;46978;50.288;28.624;2023-04-01T01:39:05;97624.55;;;3.18;100.00
60337;BME280;46978;50.288;28.624;2023-04-01T01:40:10;97628.87;;;3.16;100.00
60337;BME280;46978;50.288;28.624;2023-04-01T01:41:14;97625.44;;;3.16;100.00
60337;BME280;46978;50.288;28.624;2023-04-01T01:42:18;97623.72;;;3.18;100.00
60337;BME280;46978;50.288;28.624;2023-04-01T01:43:37;97624.55;;;3.18;100.00
60337;BME280;46978;50.288;28.624;2023-04-01T01:44:37;97618.59;;;3.18;100.00
60337;BME280;46978;50.288;28.624;2023-04-01T01:45:47;97619.42;;;3.18;100.00
60337;BME280;46978;50.288;28.624;2023-04-01T01:47:05;97617.72;;;3.17;100.00
60337;BME280;46978;50.288;28.624;2023-04-01T01:48:08;97622.83;;;3.19;100.00
60337;BME280;46978;50.288;28.624;2023-04-01T01:49:11;97620.23;;;3.20;100.00
60337;BME280;46978;50.288;28.624;2023-04-01T01:50:15;97617.65;;;3.22;100.00
60337;BME280;46978;50.288;28.624;2023-04-01T01:51:20;97619.38;;;3.21;100.00
60337;BME280;46978;50.288;28.624;2023-04-01T01:52:23;97618.54;;;3.21;100.00
60337;BME280;46978;50.288;28.624;2023-04-01T01:53:25;97621.10;;;3.21;100.00
60337;BME280;46978;50.288;28.624;2023-04-01T01:54:29;97622.80;;;3.20;100.00
60337;BME280;46978;50.288;28.624;2023-04-01T01:55:36;97621.96;;;3.20;100.00
60337;BME280;46978;50.288;28.624;2023-04-01T01:56:39;97621.13;;;3.19;100.00
60337;BME280;46978;50.288;28.624;2023-04-01T01:57:44;97616.86;;;3.18;100.00
60337;BME280;46978;50.288;28.624;2023-04-01T01:58:49;97621.13;;;3.19;100.00
60337;BME280;46978;50.288;28.624;2023-04-01T01:59:55;97614.30;;;3.18;100.00
60337;BME280;46978;50.288;28.624;2023-04-01T02:01:03;97611.77;;;3.17;100.00
60337;BME280;46978;50.288;28.624;2023-04-01T02:02:06;97610.91;;;3.18;100.00
60337;BME280;46978;50.288;28.624;2023-04-01T02:03:12;97608.34;;;3.18;100.00
60337;BME280;46978;50.288;28.624;2023-04-01T02:04:15;97609.20;;;3.17;100.00
60337;BME280;46978;50.288;28.624;2023-04-01T02:05:22;97609.17;;;3.18;100.00
60337;BME280;46978;50.288;28.624;2023-04-01T02:06:28;97611.73;;;3.18;100.00
60337;BME280;46978;50.288;28.624;2023-04-01T02:07:31;97610.91;;;3.18;100.00
60337;BME280;46978;50.288;28.624;2023-04-01T02:08:41;97610.01;;;3.19;100.00
60337;BME280;46978;50.288;28.624;2023-04-01T02:09:43;97613.47;;;3.18;100.00
60337;BME280;46978;50.288;28.624;2023-04-01T02:10:58;97610.01;;;3.19;100.00
60337;BME280;46978;50.288;28.624;2023-04-01T02:12:05;97612.55;;;3.20;100.00
60337;BME280;46978;50.288;28.624;2023-04-01T02:13:13;97611.71;;;3.20;100.00
60337;BME280;46978;50.288;28.624;2023-04-01T02:14:19;97612.55;;;3.20;100.00
60337;BME280;46978;50.288;28.624;2023-04-01T02:15:21;97614.27;;;3.20;100.00
60337;BME280;46978;50.288;28.624;2023-04-01T02:16:39;97611.71;;;3.20;100.00
60337;BME280;46978;50.288;28.624;2023-04-01T02:17:42;97612.55;;;3.20;100.00
60337;BME280;46978;50.288;28.624;2023-04-01T02:18:45;97609.15;;;3.20;100.00
60337;BME280;46978;50.288;28.624;2023-04-01T02:19:58;97614.25;;;3.21;100.00
60337;BME280;46978;50.288;28.624;2023-04-01T02:20:59;97607.42;;;3.20;100.00
60337;BME280;46978;50.288;28.624;2023-04-01T02:22:02;97609.13;;;3.21;100.00
60337;BME280;46978;50.288;28.624;2023-04-01T02:23:06;97610.85;;;3.21;100.00
60337;BME280;46978;50.288;28.624;2023-04-01T02:24:12;97605.75;;;3.19;100.00
60337;BME280;46978;50.288;28.624;2023-04-01T02:25:17;97607.45;;;3.19;100.00
60337;BME280;46978;50.288;28.624;2023-04-01T02:26:19;97605.75;;;3.19;100.00
60337;BME280;46978;50.288;28.624;2023-04-01T02:27:24;97603.22;;;3.18;100.00
60337;BME280;46978;50.288;28.624;2023-04-01T02:28:27;97608.34;;;3.18;100.00
60337;BME280;46978;50.288;28.624;2023-04-01T02:29:49;97604.94;;;3.16;100.00
60337;BME280;46978;50.288;28.624;2023-04-01T02:30:52;97603.27;;;3.15;100.00
60337;BME280;46978;50.288;28.624;2023-04-01T02:31:54;97609.23;;;3.15;100.00
60337;BME280;46978;50.288;28.624;2023-04-01T02:33:00;97604.09;;;3.15;100.00
60337;BME280;46978;50.288;28.624;2023-04-01T02:34:03;97599.00;;;3.14;100.00
60337;BME280;46978;50.288;28.624;2023-04-01T02:35:07;97597.30;;;3.13;100.00
60337;BME280;46978;50.288;28.624;2023-04-01T02:36:15;97589.61;;;3.13;100.00
60337;BME280;46978;50.288;28.624;2023-04-01T02:37:17;97594.73;;;3.13;100.00
60337;BME280;46978;50.288;28.624;2023-04-01T02:38:19;97599.86;;;3.13;100.00
60337;BME280;46978;50.288;28.624;2023-04-01T02:39:21;97593.06;;;3.12;100.00
60337;BME280;46978;50.288;28.624;2023-04-01T02:40:23;97593.06;;;3.12;100.00
60337;BME280;46978;50.288;28.624;2023-04-01T02:41:24;97588.80;;;3.11;100.00
60337;BME280;46978;50.288;28.624;2023-04-01T02:42:26;97597.33;;;3.11;100.00
60337;BME280;46978;50.288;28.624;2023-04-01T02:43:28;97594.76;;;3.11;100.00
60337;BME280;46978;50.288;28.624;2023-04-01T02:44:30;97601.61;;;3.11;100.00
60337;BME280;46978;50.288;28.624;2023-04-01T02:45:31;97593.92;;;3.11;100.00
60337;BME280;46978;50.288;28.624;2023-04-01T02:46:35;97599.05;;;3.11;100.00
60337;BME280;46978;50.288;28.624;2023-04-01T02:47:37;97593.92;;;3.11;100.00
60337;BME280;46978;50.288;28.624;2023-04-01T02:48:38;97593.92;;;3.11;100.00
60337;BME280;46978;50.288;28.624;2023-04-01T02:49:40;97595.66;;;3.10;100.00
60337;BME280;46978;50.288;28.624;2023-04-01T02:50:42;97599.08;;;3.09;100.00
60337;BME280;46978;50.288;28.624;2023-04-01T02:51:45;97602.47;;;3.10;100.00
60337;BME280;46978;50.288;28.624;2023-04-01T02:52:47;97600.80;;;3.09;100.00
60337;BME280;46978;50.288;28.624;2023-04-01T02:53:49;97594.00;;;3.06;100.00
60337;BME280;46978;50.288;28.624;2023-04-01T02:54:50;97597.42;;;3.05;100.00
60337;BME280;46978;50.288;28.624;2023-04-01T02:55:54;97595.75;;;3.04;100.00
60337;BME280;46978;50.288;28.624;2023-04-01T02:56:56;97596.59;;;3.04;100.00
60337;BME280;46978;50.288;28.624;2023-04-01T02:57:57;97596.59;;;3.04;100.00
60337;BME280;46978;50.288;28.624;2023-04-01T02:58:59;97598.31;;;3.04;100.00
60337;BME280;46978;50.288;28.624;2023-04-01T03:00:01;97589.77;;;3.03;100.00
60337;BME280;46978;50.288;28.624;2023-04-01T03:01:03;97596.61;;;3.03;100.00
60337;BME280;46978;50.288;28.624;2023-04-01T03:02:05;97594.89;;;3.03;100.00
60337;BME280;46978;50.288;28.624;2023-04-01T03:03:06;97600.02;;;3.03;100.00
60337;BME280;46978;50.288;28.624;2023-04-01T03:04:08;97604.30;;;3.03;100.00
60337;BME280;46978;50.288;28.624;2023-04-01T03:05:10;97606.86;;;3.03;100.00
60337;BME280;46978;50.288;28.624;2023-04-01T03:06:13;97602.59;;;3.02;100.00
60337;BME280;46978;50.288;28.624;2023-04-01T03:07:15;97605.16;;;3.02;100.00
60337;BME280;46978;50.288;28.624;2023-04-01T03:08:17;97600.93;;;3.01;100.00
60337;BME280;46978;50.288;28.624;2023-04-01T03:09:19;97600.06;;;3.00;100.00
60337;BME280;46978;50.288;28.624;2023-04-01T03:10:20;97598.39;;;2.99;100.00
60337;BME280;46978;50.288;28.624;2023-04-01T03:11:22;97596.69;;;2.98;100.00
60337;BME280;46978;50.288;28.624;2023-04-01T03:12:24;97591.59;;;2.97;100.00
60337;BME280;46978;50.288;28.624;2023-04-01T03:13:26;97594.98;;;2.97;100.00
60337;BME280;46978;50.288;28.624;2023-04-01T03:14:27;97593.34;;;2.95;100.00
60337;BME280;46978;50.288;28.624;2023-04-01T03:15:29;97587.35;;;2.94;100.00
60337;BME280;46978;50.288;28.624;2023-04-01T03:16:31;97592.47;;;2.94;100.00
60337;BME280;46978;50.288;28.624;2023-04-01T03:17:33;97593.36;;;2.93;100.00
60337;BME280;46978;50.288;28.624;2023-04-01T03:18:36;97591.66;;;2.92;100.00
60337;BME280;46978;50.288;28.624;2023-04-01T03:19:38;97584.81;;;2.93;100.00
60337;BME280;46978;50.288;28.624;2023-04-01T03:20:40;97588.24;;;2.93;100.00
60337;BME280;46978;50.288;28.624;2023-04-01T03:21:41;97583.95;;;2.94;100.00
60337;BME280;46978;50.288;28.624;2023-04-01T03:22:43;97583.12;;;2.93;100.00
60337;BME280;46978;50.288;28.624;2023-04-01T03:23:45;97588.22;;;2.95;100.00
60337;BME280;46978;50.288;28.624;2023-04-01T03:24:48;97587.35;;;2.94;100.00
60337;BME280;46978;50.288;28.624;2023-04-01T03:25:50;97587.33;;;2.96;100.00
60337;BME280;46978;50.288;28.624;2023-04-01T03:26:52;97596.73;;;2.95;100.00
60337;BME280;46978;50.288;28.624;2023-04-01T03:27:53;97601.03;;;2.95;100.00
60337;BME280;46978;50.288;28.624;2023-04-01T03:28:55;97602.70;;;2.96;100.00
60337;BME280;46978;50.288;28.624;2023-04-01T03:29:59;97597.58;;;2.96;100.00
60337;BME280;46978;50.288;28.624;2023-04-01T03:31:00;97598.44;;;2.96;100.00
60337;BME280;46978;50.288;28.624;2023-04-01T03:32:02;97585.68;;;2.93;100.00
60337;BME280;46978;50.288;28.624;2023-04-01T03:33:04;97594.98;;;2.97;100.00
60337;BME280;46978;50.288;28.624;2023-04-01T03:34:05;97592.42;;;2.97;100.00
60337;BME280;46978;50.288;28.624;2023-04-01T03:35:08;97598.42;;;2.98;100.00
60337;BME280;46978;50.288;28.624;2023-04-01T03:36:11;97589.86;;;2.97;100.00
60337;BME280;46978;50.288;28.624;2023-04-01T03:37:13;97593.30;;;2.98;100.00
60337;BME280;46978;50.288;28.624;2023-04-01T03:38:17;97587.25;;;3.00;100.00
60337;BME280;46978;50.288;28.624;2023-04-01T03:39:18;97583.86;;;3.00;100.00
60337;BME280;46978;50.288;28.624;2023-04-01T03:40:21;97579.56;;;3.00;100.00
60337;BME280;46978;50.288;28.624;2023-04-01T03:41:23;97583.83;;;3.01;100.00
60337;BME280;46978;50.288;28.624;2023-04-01T03:42:28;97582.97;;;3.02;100.00
60337;BME280;46978;50.288;28.624;2023-04-01T03:43:29;97582.94;;;3.04;100.00
60337;BME280;46978;50.288;28.624;2023-04-01T03:44:32;97584.61;;;3.05;100.00
60337;BME280;46978;50.288;28.624;2023-04-01T03:45:34;97594.84;;;3.07;100.00
60337;BME280;46978;50.288;28.624;2023-04-01T03:46:36;97595.70;;;3.07;100.00
60337;BME280;46978;50.288;28.624;2023-04-01T03:47:38;97599.96;;;3.07;100.00
60337;BME280;46978;50.288;28.624;2023-04-01T03:48:40;97599.13;;;3.06;100.00
60337;BME280;46978;50.288;28.624;2023-04-01T03:49:42;97592.30;;;3.05;100.00
60337;BME280;46978;50.288;28.624;2023-04-01T03:50:44;97594.86;;;3.05;100.00
60337;BME280;46978;50.288;28.624;2023-04-01T03:51:46;97593.17;;;3.05;100.00
60337;BME280;46978;50.288;28.624;2023-04-01T03:52:47;97601.72;;;3.04;100.00
60337;BME280;46978;50.288;28.624;2023-04-01T03:53:49;97602.55;;;3.05;100.00
60337;BME280;46978;50.288;28.624;2023-04-01T03:54:51;97604.25;;;3.06;100.00
60337;BME280;46978;50.288;28.624;2023-04-01T03:55:53;97607.65;;;3.07;100.00
60337;BME280;46978;50.288;28.624;2023-04-01T03:56:55;97604.23;;;3.08;100.00
60337;BME280;46978;50.288;28.624;2023-04-01T03:57:57;97601.64;;;3.09;100.00
60337;BME280;46978;50.288;28.624;2023-04-01T03:59:01;97601.61;;;3.11;100.00
60337;BME280;46978;50.288;28.624;2023-04-01T04:00:02;97599.86;;;3.13;100.00
60337;BME280;46978;50.288;28.624;2023-04-01T04:01:13;97598.09;;;3.18;100.00
60337;BME280;46978;50.288;28.624;2023-04-01T04:02:15;97597.98;;;3.24;100.00
60337;BME280;46978;50.288;28.624;2023-04-01T04:03:16;97600.44;;;3.30;100.00
60337;BME280;46978;50.288;28.624;2023-04-01T04:04:18;97599.47;;;3.36;100.00
60337;BME280;46978;50.288;28.624;2023-04-01T04:05:19;97595.95;;;3.41;100.00
60337;BME280;46978;50.288;28.624;2023-04-01T04:06:22;97599.25;;;3.48;100.00
60337;BME280;46978;50.288;28.624;2023-04-01T04:07:24;97600.03;;;3.53;100.00
60337;BME280;46978;50.288;28.624;2023-04-01T04:08:26;97598.22;;;3.58;100.00
60337;BME280;46978;50.288;28.624;2023-04-01T04:09:30;97604.12;;;3.62;100.00
60337;BME280;46978;50.288;28.624;2023-04-01T04:10:32;97604.93;;;3.66;100.00
60337;BME280;46978;50.288;28.624;2023-04-01T04:11:33;97606.58;;;3.68;100.00
60337;BME280;46978;50.288;28.624;2023-04-01T04:12:35;97608.27;;;3.69;100.00
60337;BME280;46978;50.288;28.624;2023-04-01T04:13:37;97604.78;;;3.73;100.00
60337;BME280;46978;50.288;28.624;2023-04-01T04:14:38;97591.03;;;3.76;100.00
60337;BME280;46978;50.288;28.624;2023-04-01T04:15:42;97595.27;;;3.79;100.00
60337;BME280;46978;50.288;28.624;2023-04-01T04:16:44;97592.73;;;3.77;100.00
60337;BME280;46978;50.288;28.624;2023-04-01T04:17:46;97589.34;;;3.76;100.00
60337;BME280;46978;50.288;28.624;2023-04-01T04:18:48;97595.33;;;3.75;100.00
60337;BME280;46978;50.288;28.624;2023-04-01T04:19:50;97597.92;;;3.74;100.00
60337;BME280;46978;50.288;28.624;2023-04-01T04:20:52;97597.12;;;3.72;100.00
60337;BME280;46978;50.288;28.624;2023-04-01T04:21:53;97595.48;;;3.68;100.00
60337;BME280;46978;50.288;28.624;2023-04-01T04:22:55;97593.78;;;3.67;100.00
60337;BME280;46978;50.288;28.624;2023-04-01T04:23:58;97598.94;;;3.65;100.00
60337;BME280;46978;50.288;28.624;2023-04-01T04:25:00;97592.97;;;3.65;100.00
60337;BME280;46978;50.288;28.624;2023-04-01T04:26:07;97602.39;;;3.64;100.00
60337;BME280;46978;50.288;28.624;2023-04-01T04:27:09;97594.73;;;3.63;100.00
60337;BME280;46978;50.288;28.624;2023-04-01T04:28:11;97594.76;;;3.61;100.00
60337;BME280;46978;50.288;28.624;2023-04-01T04:29:12;97595.62;;;3.60;100.00
60337;BME280;46978;50.288;28.624;2023-04-01T04:30:15;97598.19;;;3.60;100.00
60337;BME280;46978;50.288;28.624;2023-04-01T04:31:21;97596.52;;;3.57;100.00
60337;BME280;46978;50.288;28.624;2023-04-01T04:32:23;97599.08;;;3.57;100.00
60337;BME280;46978;50.288;28.624;2023-04-01T04:33:25;97599.97;;;3.56;100.00
60337;BME280;46978;50.288;28.624;2023-04-01T04:34:27;97594.84;;;3.56;100.00
60337;BME280;46978;50.288;28.624;2023-04-01T04:35:29;97595.68;;;3.57;100.00
60337;BME280;46978;50.288;28.624;2023-04-01T04:36:50;97589.72;;;3.56;100.00
60337;BME280;46978;50.288;28.624;2023-04-01T04:37:51;97587.16;;;3.56;100.00
60337;BME280;46978;50.288;28.624;2023-04-01T04:38:53;97588.82;;;3.57;100.00
60337;BME280;46978;50.288;28.624;2023-04-01T04:39:54;97586.28;;;3.56;100.00
60337;BME280;46978;50.288;28.624;2023-04-01T04:40:56;97581.99;;;3.58;100.00
60337;BME280;46978;50.288;28.624;2023-04-01T04:41:58;97585.42;;;3.57;100.00
60337;BME280;46978;50.288;28.624;2023-04-01T04:43:00;97582.83;;;3.58;100.00
60337;BME280;46978;50.288;28.624;2023-04-01T04:44:03;97582.83;;;3.58;100.00
60337;BME280;46978;50.288;28.624;2023-04-01T04:46:30;97587.13;;;3.58;100.00
60337;BME280;46978;50.288;28.624;2023-04-01T04:47:32;97586.20;;;3.61;100.00
60337;BME280;46978;50.288;28.624;2023-04-01T04:48:33;97592.20;;;3.61;100.00
60337;BME280;46978;50.288;28.624;2023-04-01T04:49:35;97593.84;;;3.64;100.00
60337;BME280;46978;50.288;28.624;2023-04-01T04:50:37;97592.14;;;3.64;100.00
60337;BME280;46978;50.288;28.624;2023-04-01T04:51:39;97590.38;;;3.66;100.00
60337;BME280;46978;50.288;28.624;2023-04-01T04:52:40;97593.78;;;3.67;100.00
60337;BME280;46978;50.288;28.624;2023-04-01T04:53:42;97597.18;;;3.69;100.00
60337;BME280;46978;50.288;28.624;2023-04-01T04:54:44;97582.59;;;3.71;100.00
60337;BME280;46978;50.288;28.624;2023-04-01T04:56:04;97601.36;;;3.73;100.00
60337;BME280;46978;50.288;28.624;2023-04-01T04:57:25;97603.89;;;3.74;100.00
60337;BME280;46978;50.288;28.624;2023-04-01T04:58:28;97603.86;;;3.76;100.00
60337;BME280;46978;50.288;28.624;2023-04-01T04:59:30;97601.27;;;3.77;100.00
60337;BME280;46978;50.288;28.624;2023-04-01T05:00:32;97604.70;;;3.78;100.00
60337;BME280;46978;50.288;28.624;2023-04-01T05:01:34;97597.84;;;3.79;100.00
60337;BME280;46978;50.288;28.624;2023-04-01T05:02:35;97596.97;;;3.80;100.00
60337;BME280;46978;50.288;28.624;2023-04-01T05:03:37;97597.81;;;3.80;100.00
60337;BME280;46978;50.288;28.624;2023-04-01T05:04:39;97604.67;;;3.80;100.00
60337;BME280;46978;50.288;28.624;2023-04-01T05:05:50;97596.91;;;3.83;100.00
60337;BME280;46978;50.288;28.624;2023-04-01T05:06:52;97602.82;;;3.86;100.00
60337;BME280;46978;50.288;28.624;2023-04-01T05:07:53;97596.80;;;3.89;100.00
60337;BME280;46978;50.288;28.624;2023-04-01T05:08:55;97599.27;;;3.93;100.00
60337;BME280;46978;50.288;28.624;2023-04-01T05:09:57;97595.74;;;3.98;100.00
60337;BME280;46978;50.288;28.624;2023-04-01T05:11:00;97600.81;;;4.01;100.00
60337;BME280;46978;50.288;28.624;2023-04-01T05:12:02;97603.35;;;4.02;100.00
60337;BME280;46978;50.288;28.624;2023-04-01T05:13:04;97599.02;;;4.04;100.00
60337;BME280;46978;50.288;28.624;2023-04-01T05:14:06;97608.36;;;4.08;100.00
60337;BME280;46978;50.288;28.624;2023-04-01T05:15:08;97598.03;;;4.11;100.00
60337;BME280;46978;50.288;28.624;2023-04-01T05:16:13;97591.16;;;4.12;100.00
60337;BME280;46978;50.288;28.624;2023-04-01T05:17:16;97595.41;;;4.15;100.00
60337;BME280;46978;50.288;28.624;2023-04-01T05:18:18;97599.60;;;4.19;100.00
60337;BME280;46978;50.288;28.624;2023-04-01T05:19:19;97605.51;;;4.22;100.00
60337;BME280;46978;50.288;28.624;2023-04-01T05:20:21;97603.71;;;4.26;100.00
60337;BME280;46978;50.288;28.624;2023-04-01T05:21:23;97591.70;;;4.28;100.00
60337;BME280;46978;50.288;28.624;2023-04-01T05:22:25;97603.55;;;4.34;100.00
60337;BME280;46978;50.288;28.624;2023-04-01T05:23:26;97598.34;;;4.37;100.00
60337;BME280;46978;50.288;28.624;2023-04-01T05:24:28;97601.75;;;4.39;100.00
60337;BME280;46978;50.288;28.624;2023-04-01T05:25:29;97596.55;;;4.42;100.00
60337;BME280;46978;50.288;28.624;2023-04-01T05:26:31;97595.61;;;4.44;100.00
60337;BME280;46978;50.288;28.624;2023-04-01T05:27:33;97604.11;;;4.48;100.00
60337;BME280;46978;50.288;28.624;2023-04-01T05:28:35;97603.19;;;4.51;100.00
60337;BME280;46978;50.288;28.624;2023-04-01T05:29:36;97598.95;;;4.49;100.00
60337;BME280;46978;50.288;28.624;2023-04-01T05:30:42;97602.34;;;4.50;100.00
60337;BME280;46978;50.288;28.624;2023-04-01T05:31:44;97597.21;;;4.50;100.00
60337;BME280;46978;50.288;28.624;2023-04-01T05:32:45;97602.48;;;4.44;100.00
60337;BME280;46978;50.288;28.624;2023-04-01T05:33:47;97601.61;;;4.45;100.00
60337;BME280;46978;50.288;28.624;2023-04-01T05:34:52;97598.11;;;4.47;100.00
60337;BME280;46978;50.288;28.624;2023-04-01T05:35:55;97598.11;;;4.47;100.00
60337;BME280;46978;50.288;28.624;2023-04-01T05:36:57;97592.08;;;4.50;100.00
60337;BME280;46978;50.288;28.624;2023-04-01T05:37:58;97590.34;;;4.51;100.00
60337;BME280;46978;50.288;28.624;2023-04-01T05:39:00;97592.84;;;4.54;100.00
60337;BME280;46978;50.288;28.624;2023-04-01T05:40:03;97588.56;;;4.54;100.00
60337;BME280;46978;50.288;28.624;2023-04-01T05:41:05;97597.04;;;4.58;100.00
60337;BME280;46978;50.288;28.624;2023-04-01T05:42:07;97592.67;;;4.61;100.00
60337;BME280;46978;50.288;28.624;2023-04-01T05:43:09;97592.59;;;4.64;100.00
60337;BME280;46978;50.288;28.624;2023-04-01T05:44:11;97593.39;;;4.68;100.00
60337;BME280;46978;50.288;28.624;2023-04-01T05:45:13;97601.83;;;4.73;100.00
60337;BME280;46978;50.288;28.624;2023-04-01T05:46:15;97600.85;;;4.79;100.00
60337;BME280;46978;50.288;28.624;2023-04-01T05:47:17;97601.65;;;4.81;100.00
60337;BME280;46978;50.288;28.624;2023-04-01T05:48:19;97607.52;;;4.86;100.00
60337;BME280;46978;50.288;28.624;2023-04-01T05:49:20;97606.54;;;4.92;100.00
60337;BME280;46978;50.288;28.624;2023-04-01T05:50:22;97613.30;;;4.96;100.00